sensor_id;sensor_type;location;lat;lon;timestamp;P1;durP1;ratioP1;P2;durP2;ratioP2
64469;SDS011;50854;48.538;14.352;2023-05-23T00:00:29;6.90;;;4.93;;
64469;SDS011;50854;48.538;14.352;2023-05-23T00:01:32;6.15;;;4.90;;
64469;SDS011;50854;48.538;14.352;2023-05-23T00:02:36;8.13;;;5.40;;
64469;SDS011;50854;48.538;14.352;2023-05-23T00:03:36;8.10;;;5.50;;
64469;SDS011;50854;48.538;14.352;2023-05-23T00:04:37;7.77;;;5.37;;
64469;SDS011;50854;48.538;14.352;2023-05-23T00:05:37;6.47;;;4.87;;
64469;SDS011;50854;48.538;14.352;2023-05-23T00:06:37;11.07;;;5.47;;
64469;SDS011;50854;48.538;14.352;2023-05-23T00:07:37;7.70;;;4.83;;
64469;SDS011;50854;48.538;14.352;2023-05-23T00:08:38;6.47;;;5.20;;
64469;SDS011;50854;48.538;14.352;2023-05-23T00:09:38;5.40;;;4.77;;
64469;SDS011;50854;48.538;14.352;2023-05-23T00:10:38;6.73;;;5.13;;
64469;SDS011;50854;48.538;14.352;2023-05-23T00:11:38;7.70;;;5.20;;
64469;SDS011;50854;48.538;14.352;2023-05-23T00:12:43;9.05;;;4.97;;
64469;SDS011;50854;48.538;14.352;2023-05-23T00:13:47;8.00;;;5.18;;
64469;SDS011;50854;48.538;14.352;2023-05-23T00:14:47;7.60;;;5.03;;
64469;SDS011;50854;48.538;14.352;2023-05-23T00:15:47;10.33;;;4.73;;
64469;SDS011;50854;48.538;14.352;2023-05-23T00:16:47;7.87;;;4.53;;
64469;SDS011;50854;48.538;14.352;2023-05-23T00:17:48;7.97;;;4.78;;
64469;SDS011;50854;48.538;14.352;2023-05-23T00:18:48;7.80;;;4.80;;
64469;SDS011;50854;48.538;14.352;2023-05-23T00:19:49;7.07;;;4.90;;
64469;SDS011;50854;48.538;14.352;2023-05-23T00:20:49;6.33;;;4.83;;
64469;SDS011;50854;48.538;14.352;2023-05-23T00:22:52;6.72;;;4.93;;
64469;SDS011;50854;48.538;14.352;2023-05-23T00:23:53;9.25;;;4.88;;
64469;SDS011;50854;48.538;14.352;2023-05-23T00:24:53;7.40;;;4.90;;
64469;SDS011;50854;48.538;14.352;2023-05-23T00:25:54;7.77;;;5.23;;
64469;SDS011;50854;48.538;14.352;2023-05-23T00:26:54;8.73;;;5.10;;
64469;SDS011;50854;48.538;14.352;2023-05-23T00:27:55;7.27;;;4.63;;
64469;SDS011;50854;48.538;14.352;2023-05-23T00:28:55;5.77;;;5.03;;
64469;SDS011;50854;48.538;14.352;2023-05-23T00:29:56;8.57;;;4.97;;
64469;SDS011;50854;48.538;14.352;2023-05-23T00:30:56;7.03;;;5.00;;
64469;SDS011;50854;48.538;14.352;2023-05-23T00:31:56;9.13;;;5.13;;
64469;SDS011;50854;48.538;14.352;2023-05-23T00:32:57;7.87;;;4.80;;
64469;SDS011;50854;48.538;14.352;2023-05-23T00:33:57;6.38;;;5.05;;
64469;SDS011;50854;48.538;14.352;2023-05-23T00:34:58;7.00;;;5.37;;
64469;SDS011;50854;48.538;14.352;2023-05-23T00:35:59;8.33;;;5.20;;
64469;SDS011;50854;48.538;14.352;2023-05-23T00:36:59;8.80;;;4.78;;
64469;SDS011;50854;48.538;14.352;2023-05-23T00:38:01;8.45;;;5.28;;
64469;SDS011;50854;48.538;14.352;2023-05-23T00:39:01;9.07;;;5.50;;
64469;SDS011;50854;48.538;14.352;2023-05-23T00:40:01;8.30;;;5.50;;
64469;SDS011;50854;48.538;14.352;2023-05-23T00:41:02;6.35;;;4.55;;
64469;SDS011;50854;48.538;14.352;2023-05-23T00:42:05;8.10;;;5.20;;
64469;SDS011;50854;48.538;14.352;2023-05-23T00:43:06;10.95;;;5.30;;
64469;SDS011;50854;48.538;14.352;2023-05-23T00:44:09;8.32;;;4.93;;
64469;SDS011;50854;48.538;14.352;2023-05-23T00:45:10;6.50;;;4.47;;
64469;SDS011;50854;48.538;14.352;2023-05-23T00:46:14;6.85;;;4.57;;
64469;SDS011;50854;48.538;14.352;2023-05-23T00:47:15;7.47;;;5.50;;
64469;SDS011;50854;48.538;14.352;2023-05-23T00:48:15;9.32;;;4.95;;
64469;SDS011;50854;48.538;14.352;2023-05-23T00:49:16;7.07;;;4.70;;
64469;SDS011;50854;48.538;14.352;2023-05-23T00:50:19;6.63;;;5.07;;
64469;SDS011;50854;48.538;14.352;2023-05-23T00:51:19;7.85;;;5.35;;
64469;SDS011;50854;48.538;14.352;2023-05-23T00:52:20;6.60;;;4.17;;
64469;SDS011;50854;48.538;14.352;2023-05-23T00:53:21;7.13;;;5.00;;
64469;SDS011;50854;48.538;14.352;2023-05-23T00:54:25;10.57;;;5.13;;
64469;SDS011;50854;48.538;14.352;2023-05-23T00:55:27;7.00;;;4.90;;
64469;SDS011;50854;48.538;14.352;2023-05-23T00:56:27;7.30;;;4.85;;
64469;SDS011;50854;48.538;14.352;2023-05-23T00:57:28;6.40;;;4.97;;
64469;SDS011;50854;48.538;14.352;2023-05-23T00:58:28;8.90;;;5.33;;
64469;SDS011;50854;48.538;14.352;2023-05-23T00:59:28;15.90;;;6.53;;
64469;SDS011;50854;48.538;14.352;2023-05-23T01:00:29;11.80;;;4.97;;
64469;SDS011;50854;48.538;14.352;2023-05-23T01:01:29;7.53;;;4.85;;
64469;SDS011;50854;48.538;14.352;2023-05-23T01:02:30;6.47;;;4.70;;
64469;SDS011;50854;48.538;14.352;2023-05-23T01:03:32;8.43;;;4.40;;
64469;SDS011;50854;48.538;14.352;2023-05-23T01:04:32;9.93;;;4.87;;
64469;SDS011;50854;48.538;14.352;2023-05-23T01:05:33;9.33;;;4.83;;
64469;SDS011;50854;48.538;14.352;2023-05-23T01:06:33;10.27;;;4.80;;
64469;SDS011;50854;48.538;14.352;2023-05-23T01:07:33;9.23;;;5.53;;
64469;SDS011;50854;48.538;14.352;2023-05-23T01:08:33;9.77;;;4.97;;
64469;SDS011;50854;48.538;14.352;2023-05-23T01:09:34;7.33;;;5.03;;
64469;SDS011;50854;48.538;14.352;2023-05-23T01:10:34;8.75;;;5.80;;
64469;SDS011;50854;48.538;14.352;2023-05-23T01:13:50;7.82;;;4.88;;
64469;SDS011;50854;48.538;14.352;2023-05-23T01:15:05;9.63;;;4.85;;
64469;SDS011;50854;48.538;14.352;2023-05-23T01:17:12;7.18;;;4.93;;
64469;SDS011;50854;48.538;14.352;2023-05-23T01:18:58;9.13;;;5.00;;
64469;SDS011;50854;48.538;14.352;2023-05-23T01:19:51;5.70;;;4.25;;
64469;SDS011;50854;48.538;14.352;2023-05-23T01:20:56;10.30;;;5.20;;
64469;SDS011;50854;48.538;14.352;2023-05-23T01:21:58;6.85;;;4.78;;
64469;SDS011;50854;48.538;14.352;2023-05-23T01:24:35;7.95;;;5.22;;
64469;SDS011;50854;48.538;14.352;2023-05-23T01:25:48;9.43;;;5.05;;
64469;SDS011;50854;48.538;14.352;2023-05-23T01:28:02;7.88;;;5.60;;
64469;SDS011;50854;48.538;14.352;2023-05-23T01:29:10;9.20;;;5.13;;
64469;SDS011;50854;48.538;14.352;2023-05-23T01:30:12;7.20;;;5.00;;
64469;SDS011;50854;48.538;14.352;2023-05-23T01:31:13;8.07;;;5.13;;
64469;SDS011;50854;48.538;14.352;2023-05-23T01:32:15;8.40;;;5.05;;
64469;SDS011;50854;48.538;14.352;2023-05-23T01:33:16;12.88;;;5.63;;
64469;SDS011;50854;48.538;14.352;2023-05-23T01:34:17;10.82;;;5.05;;
64469;SDS011;50854;48.538;14.352;2023-05-23T01:35:20;6.15;;;4.95;;
64469;SDS011;50854;48.538;14.352;2023-05-23T01:36:21;6.78;;;4.93;;
64469;SDS011;50854;48.538;14.352;2023-05-23T01:37:21;7.67;;;5.40;;
64469;SDS011;50854;48.538;14.352;2023-05-23T01:38:22;9.70;;;5.70;;
64469;SDS011;50854;48.538;14.352;2023-05-23T01:39:22;10.33;;;4.93;;
64469;SDS011;50854;48.538;14.352;2023-05-23T01:40:23;8.88;;;4.78;;
64469;SDS011;50854;48.538;14.352;2023-05-23T01:41:23;9.05;;;5.10;;
64469;SDS011;50854;48.538;14.352;2023-05-23T01:42:23;7.83;;;4.90;;
64469;SDS011;50854;48.538;14.352;2023-05-23T01:43:24;7.50;;;4.63;;
64469;SDS011;50854;48.538;14.352;2023-05-23T01:45:35;6.35;;;4.90;;
64469;SDS011;50854;48.538;14.352;2023-05-23T01:46:35;6.55;;;5.00;;
64469;SDS011;50854;48.538;14.352;2023-05-23T01:47:38;9.50;;;5.13;;
64469;SDS011;50854;48.538;14.352;2023-05-23T01:48:39;9.48;;;5.07;;
64469;SDS011;50854;48.538;14.352;2023-05-23T01:49:40;8.33;;;5.20;;
64469;SDS011;50854;48.538;14.352;2023-05-23T01:50:41;6.30;;;4.82;;
64469;SDS011;50854;48.538;14.352;2023-05-23T01:51:44;10.85;;;5.85;;
64469;SDS011;50854;48.538;14.352;2023-05-23T01:52:45;8.48;;;5.47;;
64469;SDS011;50854;48.538;14.352;2023-05-23T13:46:05;8.98;;;5.43;;
64469;SDS011;50854;48.538;14.352;2023-05-23T13:47:13;9.10;;;5.70;;
64469;SDS011;50854;48.538;14.352;2023-05-23T13:48:13;13.13;;;6.25;;
64469;SDS011;50854;48.538;14.352;2023-05-23T13:49:13;7.93;;;5.90;;
64469;SDS011;50854;48.538;14.352;2023-05-23T13:50:14;13.33;;;6.60;;
64469;SDS011;50854;48.538;14.352;2023-05-23T13:51:14;8.60;;;5.50;;
64469;SDS011;50854;48.538;14.352;2023-05-23T13:52:14;11.07;;;6.30;;
64469;SDS011;50854;48.538;14.352;2023-05-23T13:53:15;7.77;;;6.30;;
64469;SDS011;50854;48.538;14.352;2023-05-23T13:54:15;9.23;;;6.25;;
64469;SDS011;50854;48.538;14.352;2023-05-23T13:55:16;8.15;;;6.00;;
64469;SDS011;50854;48.538;14.352;2023-05-23T13:57:17;11.13;;;5.80;;
64469;SDS011;50854;48.538;14.352;2023-05-23T13:58:18;8.47;;;5.27;;
64469;SDS011;50854;48.538;14.352;2023-05-23T13:59:18;8.77;;;5.80;;
64469;SDS011;50854;48.538;14.352;2023-05-23T14:00:20;7.65;;;5.90;;
64469;SDS011;50854;48.538;14.352;2023-05-23T14:01:20;13.77;;;6.30;;
64469;SDS011;50854;48.538;14.352;2023-05-23T14:02:20;13.80;;;5.97;;
64469;SDS011;50854;48.538;14.352;2023-05-23T14:03:21;11.77;;;5.65;;
64469;SDS011;50854;48.538;14.352;2023-05-23T14:04:21;9.73;;;6.03;;
64469;SDS011;50854;48.538;14.352;2023-05-23T14:05:22;12.97;;;5.47;;
64469;SDS011;50854;48.538;14.352;2023-05-23T14:06:22;8.67;;;5.67;;
64469;SDS011;50854;48.538;14.352;2023-05-23T14:07:22;10.33;;;6.03;;
64469;SDS011;50854;48.538;14.352;2023-05-23T14:08:23;7.87;;;5.93;;
64469;SDS011;50854;48.538;14.352;2023-05-23T14:09:23;8.10;;;5.80;;
64469;SDS011;50854;48.538;14.352;2023-05-23T14:10:23;7.70;;;5.53;;
64469;SDS011;50854;48.538;14.352;2023-05-23T14:11:23;9.73;;;6.97;;
64469;SDS011;50854;48.538;14.352;2023-05-23T14:12:24;8.40;;;5.53;;
64469;SDS011;50854;48.538;14.352;2023-05-23T14:13:25;9.10;;;5.93;;
64469;SDS011;50854;48.538;14.352;2023-05-23T14:14:25;9.17;;;6.57;;
64469;SDS011;50854;48.538;14.352;2023-05-23T14:15:25;7.05;;;5.72;;
64469;SDS011;50854;48.538;14.352;2023-05-23T14:16:26;10.68;;;6.35;;
64469;SDS011;50854;48.538;14.352;2023-05-23T14:17:27;8.60;;;5.90;;
64469;SDS011;50854;48.538;14.352;2023-05-23T14:18:27;9.17;;;6.13;;
64469;SDS011;50854;48.538;14.352;2023-05-23T14:19:27;10.77;;;6.47;;
64469;SDS011;50854;48.538;14.352;2023-05-23T14:20:27;10.93;;;6.13;;
64469;SDS011;50854;48.538;14.352;2023-05-23T14:21:28;9.07;;;6.40;;
64469;SDS011;50854;48.538;14.352;2023-05-23T14:22:30;9.73;;;6.50;;
64469;SDS011;50854;48.538;14.352;2023-05-23T14:23:30;9.20;;;6.20;;
64469;SDS011;50854;48.538;14.352;2023-05-23T14:24:30;9.27;;;6.07;;
64469;SDS011;50854;48.538;14.352;2023-05-23T14:25:31;11.53;;;6.93;;
64469;SDS011;50854;48.538;14.352;2023-05-23T14:26:31;7.80;;;6.10;;
64469;SDS011;50854;48.538;14.352;2023-05-23T14:27:31;12.60;;;6.53;;
64469;SDS011;50854;48.538;14.352;2023-05-23T14:28:32;7.93;;;5.93;;
64469;SDS011;50854;48.538;14.352;2023-05-23T14:29:32;12.73;;;6.40;;
64469;SDS011;50854;48.538;14.352;2023-05-23T14:30:33;10.83;;;6.33;;
64469;SDS011;50854;48.538;14.352;2023-05-23T14:31:33;12.87;;;6.60;;
64469;SDS011;50854;48.538;14.352;2023-05-23T14:32:33;9.70;;;6.37;;
64469;SDS011;50854;48.538;14.352;2023-05-23T14:33:38;9.88;;;6.38;;
64469;SDS011;50854;48.538;14.352;2023-05-23T14:34:38;10.30;;;6.37;;
64469;SDS011;50854;48.538;14.352;2023-05-23T14:35:38;10.00;;;6.60;;
64469;SDS011;50854;48.538;14.352;2023-05-23T14:36:38;10.13;;;6.77;;
64469;SDS011;50854;48.538;14.352;2023-05-23T14:37:39;11.07;;;7.43;;
64469;SDS011;50854;48.538;14.352;2023-05-23T14:38:39;14.77;;;8.20;;
64469;SDS011;50854;48.538;14.352;2023-05-23T14:39:40;26.55;;;9.80;;
64469;SDS011;50854;48.538;14.352;2023-05-23T14:40:41;34.27;;;17.10;;
64469;SDS011;50854;48.538;14.352;2023-05-23T14:41:41;21.87;;;11.23;;
64469;SDS011;50854;48.538;14.352;2023-05-23T14:42:41;15.87;;;9.93;;
64469;SDS011;50854;48.538;14.352;2023-05-23T14:43:41;12.67;;;7.80;;
64469;SDS011;50854;48.538;14.352;2023-05-23T14:44:42;14.63;;;8.50;;
64469;SDS011;50854;48.538;14.352;2023-05-23T14:45:42;15.10;;;7.90;;
64469;SDS011;50854;48.538;14.352;2023-05-23T14:46:42;15.13;;;8.43;;
64469;SDS011;50854;48.538;14.352;2023-05-23T14:47:47;13.40;;;8.07;;
64469;SDS011;50854;48.538;14.352;2023-05-23T14:48:47;14.20;;;8.20;;
64469;SDS011;50854;48.538;14.352;2023-05-23T14:49:47;13.17;;;8.57;;
64469;SDS011;50854;48.538;14.352;2023-05-23T14:50:48;13.70;;;8.40;;
64469;SDS011;50854;48.538;14.352;2023-05-23T14:51:48;19.97;;;8.93;;
64469;SDS011;50854;48.538;14.352;2023-05-23T14:52:48;14.40;;;8.63;;
64469;SDS011;50854;48.538;14.352;2023-05-23T14:53:48;15.93;;;9.77;;
64469;SDS011;50854;48.538;14.352;2023-05-23T14:54:49;16.93;;;9.40;;
64469;SDS011;50854;48.538;14.352;2023-05-23T14:55:49;14.30;;;8.50;;
64469;SDS011;50854;48.538;14.352;2023-05-23T14:56:49;17.07;;;8.80;;
64469;SDS011;50854;48.538;14.352;2023-05-23T14:57:50;13.95;;;8.82;;
64469;SDS011;50854;48.538;14.352;2023-05-23T14:58:51;10.45;;;8.23;;
64469;SDS011;50854;48.538;14.352;2023-05-23T14:59:51;15.00;;;9.70;;
64469;SDS011;50854;48.538;14.352;2023-05-23T15:00:51;9.63;;;7.67;;
64469;SDS011;50854;48.538;14.352;2023-05-23T15:01:51;11.60;;;8.23;;
64469;SDS011;50854;48.538;14.352;2023-05-23T15:02:52;15.50;;;8.83;;
64469;SDS011;50854;48.538;14.352;2023-05-23T15:03:52;15.53;;;8.80;;
64469;SDS011;50854;48.538;14.352;2023-05-23T15:04:52;11.97;;;7.97;;
64469;SDS011;50854;48.538;14.352;2023-05-23T15:05:52;13.53;;;8.70;;
64469;SDS011;50854;48.538;14.352;2023-05-23T15:06:53;11.93;;;8.73;;
64469;SDS011;50854;48.538;14.352;2023-05-23T15:07:53;13.43;;;8.77;;
64469;SDS011;50854;48.538;14.352;2023-05-23T15:08:54;13.20;;;8.43;;
64469;SDS011;50854;48.538;14.352;2023-05-23T15:09:54;13.27;;;7.47;;
64469;SDS011;50854;48.538;14.352;2023-05-23T15:10:55;12.52;;;9.32;;
64469;SDS011;50854;48.538;14.352;2023-05-23T15:11:55;11.60;;;8.10;;
64469;SDS011;50854;48.538;14.352;2023-05-23T15:12:55;12.00;;;7.72;;
64469;SDS011;50854;48.538;14.352;2023-05-23T15:13:56;10.70;;;8.23;;
64469;SDS011;50854;48.538;14.352;2023-05-23T15:14:56;12.73;;;8.02;;
64469;SDS011;50854;48.538;14.352;2023-05-23T15:16:02;13.15;;;8.93;;
64469;SDS011;50854;48.538;14.352;2023-05-23T15:17:02;14.30;;;9.57;;
64469;SDS011;50854;48.538;14.352;2023-05-23T15:18:06;12.75;;;8.90;;
64469;SDS011;50854;48.538;14.352;2023-05-23T15:19:08;12.30;;;9.48;;
64469;SDS011;50854;48.538;14.352;2023-05-23T15:20:09;15.33;;;9.27;;
64469;SDS011;50854;48.538;14.352;2023-05-23T15:21:09;16.35;;;9.98;;
64469;SDS011;50854;48.538;14.352;2023-05-23T15:23:11;15.93;;;9.47;;
64469;SDS011;50854;48.538;14.352;2023-05-23T15:24:11;14.40;;;9.43;;
64469;SDS011;50854;48.538;14.352;2023-05-23T15:25:12;17.10;;;9.63;;
64469;SDS011;50854;48.538;14.352;2023-05-23T15:26:12;14.13;;;9.77;;
64469;SDS011;50854;48.538;14.352;2023-05-23T15:27:12;15.93;;;9.63;;
64469;SDS011;50854;48.538;14.352;2023-05-23T15:28:12;16.00;;;10.03;;
64469;SDS011;50854;48.538;14.352;2023-05-23T15:29:13;15.27;;;9.73;;
64469;SDS011;50854;48.538;14.352;2023-05-23T15:30:15;13.73;;;9.82;;
64469;SDS011;50854;48.538;14.352;2023-05-23T15:31:15;13.17;;;10.00;;
64469;SDS011;50854;48.538;14.352;2023-05-23T15:32:15;15.90;;;10.50;;
64469;SDS011;50854;48.538;14.352;2023-05-23T15:33:15;12.60;;;9.80;;
64469;SDS011;50854;48.538;14.352;2023-05-23T15:34:16;18.47;;;10.83;;
64469;SDS011;50854;48.538;14.352;2023-05-23T15:35:16;16.50;;;10.10;;
64469;SDS011;50854;48.538;14.352;2023-05-23T15:36:16;15.43;;;10.77;;
64469;SDS011;50854;48.538;14.352;2023-05-23T15:37:17;20.17;;;10.07;;
64469;SDS011;50854;48.538;14.352;2023-05-23T15:38:17;17.03;;;10.83;;
64469;SDS011;50854;48.538;14.352;2023-05-23T15:39:17;16.88;;;10.57;;
64469;SDS011;50854;48.538;14.352;2023-05-23T15:40:18;15.23;;;10.05;;
64469;SDS011;50854;48.538;14.352;2023-05-23T15:41:20;16.63;;;10.60;;
64469;SDS011;50854;48.538;14.352;2023-05-23T15:42:20;15.27;;;10.27;;
64469;SDS011;50854;48.538;14.352;2023-05-23T15:43:21;15.50;;;10.37;;
64469;SDS011;50854;48.538;14.352;2023-05-23T15:44:21;14.27;;;10.30;;
64469;SDS011;50854;48.538;14.352;2023-05-23T15:45:21;16.80;;;11.07;;
64469;SDS011;50854;48.538;14.352;2023-05-23T15:46:22;15.80;;;10.52;;
64469;SDS011;50854;48.538;14.352;2023-05-23T15:47:22;16.87;;;10.67;;
64469;SDS011;50854;48.538;14.352;2023-05-23T15:48:23;17.83;;;11.00;;
64469;SDS011;50854;48.538;14.352;2023-05-23T15:49:23;13.97;;;9.97;;
64469;SDS011;50854;48.538;14.352;2023-05-23T15:50:23;14.47;;;9.87;;
64469;SDS011;50854;48.538;14.352;2023-05-23T15:51:24;12.97;;;10.23;;
64469;SDS011;50854;48.538;14.352;2023-05-23T15:52:24;16.60;;;10.60;;
64469;SDS011;50854;48.538;14.352;2023-05-23T15:53:24;19.30;;;11.27;;
64469;SDS011;50854;48.538;14.352;2023-05-23T15:54:25;17.70;;;10.77;;
64469;SDS011;50854;48.538;14.352;2023-05-23T15:55:25;15.90;;;10.67;;
64469;SDS011;50854;48.538;14.352;2023-05-23T15:56:25;14.93;;;10.23;;
64469;SDS011;50854;48.538;14.352;2023-05-23T15:57:25;15.63;;;9.57;;
64469;SDS011;50854;48.538;14.352;2023-05-23T15:58:26;14.00;;;10.37;;
64469;SDS011;50854;48.538;14.352;2023-05-23T15:59:26;15.77;;;10.17;;
64469;SDS011;50854;48.538;14.352;2023-05-23T16:00:26;15.73;;;9.67;;
64469;SDS011;50854;48.538;14.352;2023-05-23T16:01:27;16.70;;;10.73;;
64469;SDS011;50854;48.538;14.352;2023-05-23T16:02:27;15.47;;;11.03;;
64469;SDS011;50854;48.538;14.352;2023-05-23T16:03:27;14.23;;;10.40;;
64469;SDS011;50854;48.538;14.352;2023-05-23T16:04:28;19.60;;;10.40;;
64469;SDS011;50854;48.538;14.352;2023-05-23T16:05:28;15.20;;;11.20;;
64469;SDS011;50854;48.538;14.352;2023-05-23T16:06:28;15.33;;;10.60;;
64469;SDS011;50854;48.538;14.352;2023-05-23T16:07:28;16.63;;;11.17;;
64469;SDS011;50854;48.538;14.352;2023-05-23T16:08:29;14.13;;;10.20;;
64469;SDS011;50854;48.538;14.352;2023-05-23T16:09:29;13.60;;;10.63;;
64469;SDS011;50854;48.538;14.352;2023-05-23T16:10:29;13.37;;;10.00;;
64469;SDS011;50854;48.538;14.352;2023-05-23T16:11:30;17.10;;;10.10;;
64469;SDS011;50854;48.538;14.352;2023-05-23T16:12:30;14.47;;;9.90;;
64469;SDS011;50854;48.538;14.352;2023-05-23T16:13:30;14.63;;;10.17;;
64469;SDS011;50854;48.538;14.352;2023-05-23T16:14:30;15.07;;;10.30;;
64469;SDS011;50854;48.538;14.352;2023-05-23T16:15:31;13.83;;;9.47;;
64469;SDS011;50854;48.538;14.352;2023-05-23T16:16:31;14.30;;;10.10;;
64469;SDS011;50854;48.538;14.352;2023-05-23T16:17:31;18.00;;;10.43;;
64469;SDS011;50854;48.538;14.352;2023-05-23T16:18:32;14.70;;;10.73;;
64469;SDS011;50854;48.538;14.352;2023-05-23T16:19:32;12.80;;;9.60;;
64469;SDS011;50854;48.538;14.352;2023-05-23T16:20:32;15.18;;;9.95;;
64469;SDS011;50854;48.538;14.352;2023-05-23T16:21:35;16.88;;;9.60;;
64469;SDS011;50854;48.538;14.352;2023-05-23T16:22:36;17.90;;;10.17;;
64469;SDS011;50854;48.538;14.352;2023-05-23T16:23:36;11.83;;;9.33;;
64469;SDS011;50854;48.538;14.352;2023-05-23T16:24:36;14.30;;;9.90;;
64469;SDS011;50854;48.538;14.352;2023-05-23T16:25:36;15.43;;;9.20;;
64469;SDS011;50854;48.538;14.352;2023-05-23T16:26:37;13.63;;;9.97;;
64469;SDS011;50854;48.538;14.352;2023-05-23T16:27:38;14.00;;;9.65;;
64469;SDS011;50854;48.538;14.352;2023-05-23T16:28:39;17.17;;;10.27;;
64469;SDS011;50854;48.538;14.352;2023-05-23T16:29:42;14.40;;;9.60;;
64469;SDS011;50854;48.538;14.352;2023-05-23T16:30:42;14.87;;;10.57;;
64469;SDS011;50854;48.538;14.352;2023-05-23T16:31:42;14.80;;;10.93;;
64469;SDS011;50854;48.538;14.352;2023-05-23T16:32:43;16.03;;;10.27;;
64469;SDS011;50854;48.538;14.352;2023-05-23T16:33:43;18.03;;;10.67;;
64469;SDS011;50854;48.538;14.352;2023-05-23T16:34:43;17.42;;;10.23;;
64469;SDS011;50854;48.538;14.352;2023-05-23T16:35:44;15.57;;;9.47;;
64469;SDS011;50854;48.538;14.352;2023-05-23T16:36:44;15.17;;;9.20;;
64469;SDS011;50854;48.538;14.352;2023-05-23T16:37:44;18.90;;;9.43;;
64469;SDS011;50854;48.538;14.352;2023-05-23T16:38:44;12.73;;;9.63;;
64469;SDS011;50854;48.538;14.352;2023-05-23T16:39:45;14.63;;;11.10;;
64469;SDS011;50854;48.538;14.352;2023-05-23T16:40:45;14.57;;;10.53;;
64469;SDS011;50854;48.538;14.352;2023-05-23T16:41:45;17.87;;;9.40;;
64469;SDS011;50854;48.538;14.352;2023-05-23T16:42:45;15.67;;;9.40;;
64469;SDS011;50854;48.538;14.352;2023-05-23T16:43:46;17.77;;;10.77;;
64469;SDS011;50854;48.538;14.352;2023-05-23T16:44:46;13.97;;;10.03;;
64469;SDS011;50854;48.538;14.352;2023-05-23T16:45:46;14.27;;;10.47;;
64469;SDS011;50854;48.538;14.352;2023-05-23T16:46:46;18.90;;;9.83;;
64469;SDS011;50854;48.538;14.352;2023-05-23T16:47:46;14.73;;;9.83;;
64469;SDS011;50854;48.538;14.352;2023-05-23T16:48:47;17.77;;;9.70;;
64469;SDS011;50854;48.538;14.352;2023-05-23T16:49:47;15.85;;;10.70;;
64469;SDS011;50854;48.538;14.352;2023-05-23T16:50:48;14.53;;;9.77;;
64469;SDS011;50854;48.538;14.352;2023-05-23T16:51:48;18.77;;;11.30;;
64469;SDS011;50854;48.538;14.352;2023-05-23T16:52:48;18.00;;;10.37;;
64469;SDS011;50854;48.538;14.352;2023-05-23T16:53:48;15.47;;;10.27;;
64469;SDS011;50854;48.538;14.352;2023-05-23T16:54:49;13.13;;;9.77;;
64469;SDS011;50854;48.538;14.352;2023-05-23T16:55:49;15.17;;;11.03;;
64469;SDS011;50854;48.538;14.352;2023-05-23T16:56:49;17.07;;;10.33;;
64469;SDS011;50854;48.538;14.352;2023-05-23T16:57:50;16.03;;;11.33;;
64469;SDS011;50854;48.538;14.352;2023-05-23T16:58:50;16.52;;;11.60;;
64469;SDS011;50854;48.538;14.352;2023-05-23T16:59:50;33.33;;;21.83;;
64469;SDS011;50854;48.538;14.352;2023-05-23T17:00:51;23.57;;;16.50;;
64469;SDS011;50854;48.538;14.352;2023-05-23T17:01:51;38.03;;;24.20;;
64469;SDS011;50854;48.538;14.352;2023-05-23T17:02:52;30.17;;;19.70;;
64469;SDS011;50854;48.538;14.352;2023-05-23T17:03:52;17.48;;;12.20;;
64469;SDS011;50854;48.538;14.352;2023-05-23T17:04:52;19.07;;;13.23;;
64469;SDS011;50854;48.538;14.352;2023-05-23T17:05:54;21.60;;;14.82;;
64469;SDS011;50854;48.538;14.352;2023-05-23T17:06:54;18.73;;;12.45;;
64469;SDS011;50854;48.538;14.352;2023-05-23T17:07:55;17.27;;;12.17;;
64469;SDS011;50854;48.538;14.352;2023-05-23T17:08:55;19.33;;;11.97;;
64469;SDS011;50854;48.538;14.352;2023-05-23T17:09:56;17.38;;;12.00;;
64469;SDS011;50854;48.538;14.352;2023-05-23T17:10:56;16.03;;;12.57;;
64469;SDS011;50854;48.538;14.352;2023-05-23T17:11:57;22.07;;;11.77;;
64469;SDS011;50854;48.538;14.352;2023-05-23T17:12:57;17.43;;;11.93;;
64469;SDS011;50854;48.538;14.352;2023-05-23T17:13:57;17.40;;;12.53;;
64469;SDS011;50854;48.538;14.352;2023-05-23T17:14:57;18.77;;;12.03;;
64469;SDS011;50854;48.538;14.352;2023-05-23T17:15:57;23.77;;;12.70;;
64469;SDS011;50854;48.538;14.352;2023-05-23T17:16:58;17.73;;;11.33;;
64469;SDS011;50854;48.538;14.352;2023-05-23T17:17:58;14.80;;;10.17;;
64469;SDS011;50854;48.538;14.352;2023-05-23T17:18:59;15.53;;;11.60;;
64469;SDS011;50854;48.538;14.352;2023-05-23T17:19:59;18.05;;;11.02;;
64469;SDS011;50854;48.538;14.352;2023-05-23T17:20:59;16.77;;;12.07;;
64469;SDS011;50854;48.538;14.352;2023-05-23T17:22:00;15.67;;;12.30;;
64469;SDS011;50854;48.538;14.352;2023-05-23T17:23:00;18.37;;;11.93;;
64469;SDS011;50854;48.538;14.352;2023-05-23T17:24:00;16.00;;;13.03;;
64469;SDS011;50854;48.538;14.352;2023-05-23T17:25:01;19.03;;;11.93;;
64469;SDS011;50854;48.538;14.352;2023-05-23T17:26:02;15.57;;;11.85;;
64469;SDS011;50854;48.538;14.352;2023-05-23T17:27:03;15.18;;;12.25;;
64469;SDS011;50854;48.538;14.352;2023-05-23T17:28:03;15.80;;;12.60;;
64469;SDS011;50854;48.538;14.352;2023-05-23T17:29:04;19.52;;;12.23;;
64469;SDS011;50854;48.538;14.352;2023-05-23T17:30:04;19.30;;;12.40;;
64469;SDS011;50854;48.538;14.352;2023-05-23T17:31:05;17.85;;;12.55;;
64469;SDS011;50854;48.538;14.352;2023-05-23T17:32:05;23.25;;;12.60;;
64469;SDS011;50854;48.538;14.352;2023-05-23T17:33:06;20.00;;;12.33;;
64469;SDS011;50854;48.538;14.352;2023-05-23T17:34:06;19.33;;;13.52;;
64469;SDS011;50854;48.538;14.352;2023-05-23T17:35:07;20.47;;;12.43;;
64469;SDS011;50854;48.538;14.352;2023-05-23T17:36:07;16.95;;;12.77;;
64469;SDS011;50854;48.538;14.352;2023-05-23T17:37:07;18.97;;;12.57;;
64469;SDS011;50854;48.538;14.352;2023-05-23T17:38:08;17.63;;;12.07;;
64469;SDS011;50854;48.538;14.352;2023-05-23T17:39:08;17.93;;;12.53;;
64469;SDS011;50854;48.538;14.352;2023-05-23T17:40:09;17.93;;;11.70;;
64469;SDS011;50854;48.538;14.352;2023-05-23T17:41:10;16.02;;;12.55;;
64469;SDS011;50854;48.538;14.352;2023-05-23T17:42:10;16.57;;;12.20;;
64469;SDS011;50854;48.538;14.352;2023-05-23T17:43:11;21.52;;;14.23;;
64469;SDS011;50854;48.538;14.352;2023-05-23T17:44:12;21.35;;;13.25;;
64469;SDS011;50854;48.538;14.352;2023-05-23T17:45:12;20.17;;;13.40;;
64469;SDS011;50854;48.538;14.352;2023-05-23T17:46:12;22.83;;;13.00;;
64469;SDS011;50854;48.538;14.352;2023-05-23T17:47:12;20.43;;;13.27;;
64469;SDS011;50854;48.538;14.352;2023-05-23T17:48:16;19.67;;;13.50;;
64469;SDS011;50854;48.538;14.352;2023-05-23T17:49:16;18.58;;;14.20;;
64469;SDS011;50854;48.538;14.352;2023-05-23T17:50:16;20.17;;;13.77;;
64469;SDS011;50854;48.538;14.352;2023-05-23T17:51:17;21.37;;;14.07;;
64469;SDS011;50854;48.538;14.352;2023-05-23T17:52:17;20.53;;;13.00;;
64469;SDS011;50854;48.538;14.352;2023-05-23T17:53:17;21.10;;;13.68;;
64469;SDS011;50854;48.538;14.352;2023-05-23T17:54:18;20.40;;;14.80;;
64469;SDS011;50854;48.538;14.352;2023-05-23T17:55:18;19.17;;;13.60;;
64469;SDS011;50854;48.538;14.352;2023-05-23T17:56:19;19.67;;;13.93;;
64469;SDS011;50854;48.538;14.352;2023-05-23T17:57:22;20.55;;;13.90;;
64469;SDS011;50854;48.538;14.352;2023-05-23T17:58:22;20.20;;;12.50;;